Time;durP1;ratioP1;P1;durP2;ratioP2;P2;SDS_P1;SDS_P2;PMS_P1;PMS_P2;Temp;Humidity;BMP_temperature;BMP_pressure;BME280_temperature;BME280_humidity;BME280_pressure;Samples;Min_cycle;Max_cycle;Signal;HPM_P1;HPM_P2
2022/05/16 00:00:17;;;;;;;6.13;5.50;;;;;;;;;;5060946;28;20409;-88
2022/05/16 00:02:44;;;;;;;7.03;5.80;;;;;;;;;;5059914;28;20937;-87
2022/05/16 00:05:10;;;;;;;8.77;5.67;;;;;;;;;;5059286;28;20417;-86
2022/05/16 00:07:36;;;;;;;10.43;5.40;;;;;;;;;;5059045;28;20406;-86
2022/05/16 00:10:03;;;;;;;8.87;5.80;;;;;;;;;;5060234;28;20449;-87
2022/05/16 00:12:29;;;;;;;7.33;5.90;;;;;;;;;;5067799;28;20413;-86
2022/05/16 00:14:55;;;;;;;6.97;5.10;;;;;;;;;;5070126;28;20824;-86
2022/05/16 00:17:21;;;;;;;9.30;5.80;;;;;;;;;;5060504;28;20908;-86
2022/05/16 00:19:47;;;;;;;10.27;5.90;;;;;;;;;;5060043;28;20471;-87
2022/05/16 00:22:13;;;;;;;8.70;6.00;;;;;;;;;;5059488;28;20482;-86
2022/05/16 00:24:41;;;;;;;8.80;5.53;;;;;;;;;;5060059;28;20459;-85
2022/05/16 00:27:07;;;;;;;8.33;5.03;;;;;;;;;;5060785;28;20401;-85
2022/05/16 00:29:33;;;;;;;7.83;5.70;;;;;;;;;;5060706;28;20445;-86
2022/05/16 00:31:59;;;;;;;8.13;5.60;;;;;;;;;;5059371;28;20464;-87
2022/05/16 00:34:25;;;;;;;7.17;5.40;;;;;;;;;;5040852;28;20923;-86
2022/05/16 00:36:52;;;;;;;9.50;5.50;;;;;;;;;;5058803;28;20432;-86
2022/05/16 00:39:18;;;;;;;7.20;6.00;;;;;;;;;;5059322;28;20459;-86
2022/05/16 00:41:45;;;;;;;5.93;5.33;;;;;;;;;;5059427;28;20428;-86
2022/05/16 00:44:12;;;;;;;7.93;5.13;;;;;;;;;;5040889;28;20461;-87
2022/05/16 00:46:38;;;;;;;7.37;5.37;;;;;;;;;;5058427;28;20401;-86
2022/05/16 00:49:05;;;;;;;8.70;6.03;;;;;;;;;;5058051;28;20445;-84
2022/05/16 00:51:33;;;;;;;8.17;5.43;;;;;;;;;;5040713;28;20413;-85
2022/05/16 00:54:06;;;;;;;6.70;5.60;;;;;;;;;;5053917;28;20417;-85
2022/05/16 00:56:33;;;;;;;7.17;6.10;;;;;;;;;;5036450;28;20505;-84
2022/05/16 00:58:59;;;;;;;7.07;5.00;;;;;;;;;;5054870;28;20921;-85
2022/05/16 01:06:56;;;;;;;9.27;4.93;;;;;;;;;;5057595;28;20478;-86
2022/05/16 01:09:22;;;;;;;5.50;4.43;;;;;;;;;;5056476;28;20519;-86
2022/05/16 01:11:48;;;;;;;5.47;4.40;;;;;;;;;;5057203;28;20793;-85
2022/05/16 01:14:33;;;;;;;9.43;5.23;;;;;;;;;;5057951;28;20925;-85
2022/05/16 01:16:59;;;;;;;5.10;4.50;;;;;;;;;;5063764;28;20398;-86
2022/05/16 01:19:25;;;;;;;7.47;4.90;;;;;;;;;;5042016;28;20409;-83
2022/05/16 01:21:51;;;;;;;6.93;5.10;;;;;;;;;;5042182;28;20409;-87
2022/05/16 01:24:18;;;;;;;5.67;4.53;;;;;;;;;;5063241;28;20425;-84
2022/05/16 01:26:44;;;;;;;7.03;5.10;;;;;;;;;;5061394;28;20402;-84
2022/05/16 01:29:10;;;;;;;7.90;5.40;;;;;;;;;;5060239;28;20886;-84
2022/05/16 01:31:37;;;;;;;6.27;5.60;;;;;;;;;;5060317;28;20405;-84
2022/05/16 01:34:04;;;;;;;7.87;5.23;;;;;;;;;;5059857;28;20414;-85
2022/05/16 01:36:30;;;;;;;6.17;5.30;;;;;;;;;;5059665;28;20890;-84
2022/05/16 01:38:56;;;;;;;6.17;4.87;;;;;;;;;;5061696;28;20456;-84
2022/05/16 01:41:23;;;;;;;8.00;5.60;;;;;;;;;;5063557;28;20409;-84
2022/05/16 01:43:51;;;;;;;5.90;4.77;;;;;;;;;;5063638;28;20489;-85
2022/05/16 01:46:23;;;;;;;9.17;5.27;;;;;;;;;;5063614;28;20416;-85
2022/05/16 01:48:49;;;;;;;7.37;5.10;;;;;;;;;;5054872;28;20534;-84
2022/05/16 01:51:15;;;;;;;6.73;5.40;;;;;;;;;;5043788;28;20953;-85
2022/05/16 01:53:42;;;;;;;7.07;4.80;;;;;;;;;;5043074;28;20819;-85
2022/05/16 01:56:09;;;;;;;5.50;4.47;;;;;;;;;;5043428;28;20922;-86
2022/05/16 01:58:35;;;;;;;11.03;6.03;;;;;;;;;;5042677;28;20914;-85
2022/05/16 02:01:02;;;;;;;9.23;7.20;;;;;;;;;;5042860;28;20829;-85
2022/05/16 02:03:28;;;;;;;8.50;6.00;;;;;;;;;;5042480;28;20448;-84
2022/05/16 02:05:54;;;;;;;5.67;5.07;;;;;;;;;;5042961;28;20429;-85
2022/05/16 02:08:20;;;;;;;7.77;5.63;;;;;;;;;;5042005;28;20518;-85
2022/05/16 02:10:47;;;;;;;6.50;5.57;;;;;;;;;;5043191;28;20778;-85
2022/05/16 02:13:13;;;;;;;11.00;6.50;;;;;;;;;;5043514;28;20427;-85
2022/05/16 02:15:40;;;;;;;10.70;7.67;;;;;;;;;;5042777;28;20880;-85
2022/05/16 02:18:08;;;;;;;8.67;6.00;;;;;;;;;;5042575;28;20406;-85
2022/05/16 02:20:34;;;;;;;8.40;5.50;;;;;;;;;;5043278;28;20433;-85
2022/05/16 02:25:47;;;;;;;7.67;5.30;;;;;;;;;;5042397;28;20442;-85
2022/05/16 02:28:14;;;;;;;9.67;5.20;;;;;;;;;;5042429;28;20429;-85
2022/05/16 02:30:43;;;;;;;7.80;5.47;;;;;;;;;;5042148;28;20464;-84
2022/05/16 02:33:10;;;;;;;8.20;6.07;;;;;;;;;;5042449;28;20439;-86
2022/05/16 02:35:37;;;;;;;8.60;5.90;;;;;;;;;;5042602;28;20401;-86
2022/05/16 02:38:03;;;;;;;8.63;5.60;;;;;;;;;;5042809;28;20402;-85
2022/05/16 02:40:30;;;;;;;7.73;5.30;;;;;;;;;;5042351;28;20399;-87
2022/05/16 02:42:57;;;;;;;13.83;5.80;;;;;;;;;;5048862;28;20433;-83
2022/05/16 02:45:24;;;;;;;9.00;5.20;;;;;;;;;;5054674;28;20458;-85
2022/05/16 02:47:50;;;;;;;7.53;5.17;;;;;;;;;;5031027;28;20414;-85
2022/05/16 02:50:17;;;;;;;7.73;5.33;;;;;;;;;;5059251;28;20470;-83
2022/05/16 02:52:43;;;;;;;6.83;5.10;;;;;;;;;;5029447;28;20450;-85
2022/05/16 02:55:09;;;;;;;5.47;4.50;;;;;;;;;;5042602;28;20441;-85
2022/05/16 02:57:35;;;;;;;10.87;5.50;;;;;;;;;;5043642;28;20494;-84
2022/05/16 03:00:01;;;;;;;7.80;5.63;;;;;;;;;;5024010;28;20441;-85
2022/05/16 03:02:28;;;;;;;10.60;5.80;;;;;;;;;;5024057;28;20442;-85
2022/05/16 03:04:54;;;;;;;10.20;6.67;;;;;;;;;;5041758;28;20406;-85
2022/05/16 03:07:20;;;;;;;10.03;6.80;;;;;;;;;;5024181;28;20454;-85
2022/05/16 03:09:47;;;;;;;6.80;5.40;;;;;;;;;;5042173;28;20450;-85
2022/05/16 03:12:13;;;;;;;6.43;5.27;;;;;;;;;;5025355;28;20419;-85
2022/05/16 03:14:39;;;;;;;7.87;5.07;;;;;;;;;;5042599;28;20845;-85
2022/05/16 03:17:08;;;;;;;11.30;5.70;;;;;;;;;;5024935;28;20399;-85
2022/05/16 03:19:35;;;;;;;8.90;5.33;;;;;;;;;;5041389;28;20508;-85
2022/05/16 03:22:02;;;;;;;5.50;4.90;;;;;;;;;;5041903;28;20430;-85
2022/05/16 03:24:28;;;;;;;10.00;4.90;;;;;;;;;;5041146;28;20764;-85
2022/05/16 03:26:54;;;;;;;6.37;4.97;;;;;;;;;;5039712;28;20798;-86
2022/05/16 03:29:20;;;;;;;7.57;5.80;;;;;;;;;;5041758;28;20458;-86
2022/05/16 03:31:46;;;;;;;7.87;4.40;;;;;;;;;;5042048;28;20458;-85
2022/05/16 03:34:13;;;;;;;5.23;4.53;;;;;;;;;;5042484;28;20762;-85
2022/05/16 03:36:39;;;;;;;6.03;4.50;;;;;;;;;;5041924;28;20456;-85
2022/05/16 03:41:51;;;;;;;26.73;18.93;;;;;;;;;;5042381;28;20437;-85
2022/05/16 03:44:18;;;;;;;7.13;4.73;;;;;;;;;;5024146;28;20841;-86
2022/05/16 03:46:44;;;;;;;7.27;4.90;;;;;;;;;;5042011;28;20597;-85
2022/05/16 03:49:10;;;;;;;8.20;4.87;;;;;;;;;;5024024;28;20452;-85
2022/05/16 03:51:37;;;;;;;8.33;5.10;;;;;;;;;;5041574;28;20402;-86
2022/05/16 03:54:03;;;;;;;6.60;5.73;;;;;;;;;;5041385;28;20419;-85
2022/05/16 03:56:29;;;;;;;9.83;5.27;;;;;;;;;;5041523;28;20406;-84
2022/05/16 03:58:57;;;;;;;6.23;5.03;;;;;;;;;;5041797;28;20413;-85
2022/05/16 04:01:23;;;;;;;6.40;4.87;;;;;;;;;;5040832;28;20402;-86
2022/05/16 04:03:50;;;;;;;9.30;4.97;;;;;;;;;;5080842;23;20861;-85
2022/05/16 04:06:16;;;;;;;6.70;4.20;;;;;;;;;;5070204;28;20444;-85
2022/05/16 04:08:43;;;;;;;9.67;5.00;;;;;;;;;;5045495;28;20453;-85
2022/05/16 04:11:10;;;;;;;5.97;4.93;;;;;;;;;;5044143;28;20523;-85
2022/05/16 04:13:36;;;;;;;4.90;4.27;;;;;;;;;;5061243;28;20425;-86
2022/05/16 04:16:03;;;;;;;7.77;4.57;;;;;;;;;;5061134;28;20398;-88
2022/05/16 04:18:29;;;;;;;6.40;4.10;;;;;;;;;;5060991;28;20473;-85
2022/05/16 04:20:55;;;;;;;6.07;4.40;;;;;;;;;;5060424;28;20476;-85
2022/05/16 04:23:21;;;;;;;4.90;4.40;;;;;;;;;;5060706;28;20873;-86
2022/05/16 04:25:47;;;;;;;5.53;4.70;;;;;;;;;;5041364;28;20776;-85
2022/05/16 04:28:13;;;;;;;6.93;4.90;;;;;;;;;;5059117;28;20414;-84
2022/05/16 04:30:39;;;;;;;6.30;4.40;;;;;;;;;;5057333;28;20398;-84
2022/05/16 04:33:06;;;;;;;8.60;4.27;;;;;;;;;;5057212;28;20422;-83
2022/05/16 04:35:33;;;;;;;6.70;4.67;;;;;;;;;;5058024;28;20435;-85
2022/05/16 04:37:59;;;;;;;6.03;4.13;;;;;;;;;;5058780;28;20412;-84
2022/05/16 04:40:26;;;;;;;6.57;4.60;;;;;;;;;;5040145;28;20401;-85
2022/05/16 04:42:52;;;;;;;10.70;4.57;;;;;;;;;;5058702;28;20429;-85
2022/05/16 04:45:26;;;;;;;6.37;5.00;;;;;;;;;;5058525;28;20470;-86
2022/05/16 04:47:53;;;;;;;7.63;5.10;;;;;;;;;;5059057;28;20413;-85
2022/05/16 04:50:21;;;;;;;6.20;5.50;;;;;;;;;;5059194;28;20453;-85
2022/05/16 04:52:47;;;;;;;5.80;4.83;;;;;;;;;;5040632;28;20405;-86
2022/05/16 04:55:13;;;;;;;6.00;4.40;;;;;;;;;;5041196;28;20405;-86
2022/05/16 04:57:40;;;;;;;9.73;5.20;;;;;;;;;;5060330;28;20401;-87
2022/05/16 05:00:07;;;;;;;6.47;5.53;;;;;;;;;;5061658;28;20409;-85
2022/05/16 05:02:33;;;;;;;6.53;5.00;;;;;;;;;;5046180;28;20413;-85
2022/05/16 05:05:00;;;;;;;9.43;5.30;;;;;;;;;;5047962;28;20460;-83
2022/05/16 05:07:26;;;;;;;11.83;6.07;;;;;;;;;;5057548;28;20393;-84
2022/05/16 05:15:22;;;;;;;7.77;5.70;;;;;;;;;;5066473;28;20750;-84
2022/05/16 05:17:48;;;;;;;10.33;7.57;;;;;;;;;;5066077;28;20526;-86
2022/05/16 05:20:15;;;;;;;5.27;4.77;;;;;;;;;;5065280;28;20402;-86
2022/05/16 05:22:42;;;;;;;9.03;6.00;;;;;;;;;;5064909;28;20460;-86
2022/05/16 05:25:10;;;;;;;7.50;5.37;;;;;;;;;;5064087;28;20410;-86
2022/05/16 05:27:36;;;;;;;7.10;4.80;;;;;;;;;;5044764;28;20417;-86
2022/05/16 05:30:02;;;;;;;12.17;6.10;;;;;;;;;;5063089;28;20464;-86
2022/05/16 05:32:28;;;;;;;9.33;5.90;;;;;;;;;;5063065;28;20459;-87
2022/05/16 05:34:55;;;;;;;11.33;6.53;;;;;;;;;;5068240;28;20417;-86
2022/05/16 05:37:21;;;;;;;8.93;6.60;;;;;;;;;;5064223;28;20401;-87
2022/05/16 05:39:47;;;;;;;6.83;5.40;;;;;;;;;;5066999;28;20413;-87
2022/05/16 05:42:13;;;;;;;9.00;6.20;;;;;;;;;;5045602;28;20921;-87
2022/05/16 05:44:39;;;;;;;9.73;5.07;;;;;;;;;;5063691;28;20433;-88
2022/05/16 05:47:06;;;;;;;8.07;5.90;;;;;;;;;;5063326;28;20453;-87
2022/05/16 05:49:32;;;;;;;9.63;6.20;;;;;;;;;;5045870;28;20457;-86
2022/05/16 05:51:59;;;;;;;9.53;5.10;;;;;;;;;;5064082;28;20439;-87
2022/05/16 05:54:25;;;;;;;7.70;5.33;;;;;;;;;;5045533;28;20417;-86
2022/05/16 05:56:51;;;;;;;7.53;5.87;;;;;;;;;;5046045;28;20420;-87
2022/05/16 05:59:17;;;;;;;10.07;6.00;;;;;;;;;;5063184;28;20410;-86
2022/05/16 06:01:43;;;;;;;7.40;5.90;;;;;;;;;;5062999;28;20467;-88
2022/05/16 06:04:09;;;;;;;9.70;6.17;;;;;;;;;;5063132;28;20460;-86
2022/05/16 06:06:35;;;;;;;8.50;5.63;;;;;;;;;;5063493;28;20409;-87
2022/05/16 06:09:01;;;;;;;8.70;5.97;;;;;;;;;;5057729;28;20453;-86
2022/05/16 06:11:28;;;;;;;8.63;6.13;;;;;;;;;;5072990;28;20414;-85
2022/05/16 06:13:55;;;;;;;7.30;6.00;;;;;;;;;;5062666;28;20413;-85
2022/05/16 06:16:21;;;;;;;7.53;5.30;;;;;;;;;;5061505;28;20417;-84
2022/05/16 06:18:47;;;;;;;14.70;6.87;;;;;;;;;;5081521;28;20497;-83
2022/05/16 06:21:13;;;;;;;8.10;6.87;;;;;;;;;;5082730;28;20763;-84
2022/05/16 06:23:39;;;;;;;7.03;5.70;;;;;;;;;;5061781;28;20448;-84
2022/05/16 06:26:05;;;;;;;24.03;8.30;;;;;;;;;;5064137;28;20419;-84
2022/05/16 06:28:37;;;;;;;10.90;6.13;;;;;;;;;;5081560;28;20622;-84
2022/05/16 06:31:03;;;;;;;11.03;6.87;;;;;;;;;;5083446;28;20464;-83
2022/05/16 06:33:29;;;;;;;10.53;6.73;;;;;;;;;;5081523;28;20433;-83
2022/05/16 06:35:56;;;;;;;10.13;6.07;;;;;;;;;;5083008;28;20416;-83
2022/05/16 06:38:25;;;;;;;10.57;5.33;;;;;;;;;;5082483;28;20452;-84
2022/05/16 06:40:52;;;;;;;7.77;4.90;;;;;;;;;;5083727;28;20432;-83
2022/05/16 06:43:19;;;;;;;7.57;5.23;;;;;;;;;;5081535;28;20437;-82
2022/05/16 06:45:46;;;;;;;9.33;5.20;;;;;;;;;;5082522;28;20481;-83
2022/05/16 06:48:12;;;;;;;8.77;5.73;;;;;;;;;;5082736;28;20792;-83
2022/05/16 06:50:39;;;;;;;7.60;4.77;;;;;;;;;;5064873;28;20444;-82
2022/05/16 06:53:05;;;;;;;7.17;4.70;;;;;;;;;;5063434;28;20436;-82
2022/05/16 06:55:32;;;;;;;4.63;3.87;;;;;;;;;;5062564;28;20397;-83
2022/05/16 06:57:58;;;;;;;7.30;3.80;;;;;;;;;;5060203;28;20428;-82
2022/05/16 07:00:26;;;;;;;6.23;3.97;;;;;;;;;;5081488;28;20405;-83
2022/05/16 07:02:52;;;;;;;4.80;3.83;;;;;;;;;;5063459;28;20502;-85
2022/05/16 07:05:18;;;;;;;6.43;3.80;;;;;;;;;;5081176;28;20432;-81
2022/05/16 07:07:44;;;;;;;6.90;3.73;;;;;;;;;;5081231;28;20400;-82
2022/05/16 07:10:12;;;;;;;5.40;3.30;;;;;;;;;;5063741;28;20467;-82
2022/05/16 07:12:38;;;;;;;8.13;3.77;;;;;;;;;;5085674;28;20401;-80
2022/05/16 07:15:04;;;;;;;4.97;3.80;;;;;;;;;;5093172;28;20409;-81
2022/05/16 07:17:30;;;;;;;4.60;3.37;;;;;;;;;;5098318;28;20422;-80
2022/05/16 07:19:56;;;;;;;4.77;3.30;;;;;;;;;;5098012;28;20465;-84
2022/05/16 07:22:23;;;;;;;4.57;3.57;;;;;;;;;;5079600;28;20937;-83
2022/05/16 07:24:51;;;;;;;6.33;3.23;;;;;;;;;;5070444;28;20433;-83
2022/05/16 07:30:02;;;;;;;5.53;3.13;;;;;;;;;;5087771;28;20859;-83
2022/05/16 07:32:35;;;;;;;9.30;2.83;;;;;;;;;;5091417;28;20415;-83
2022/05/16 07:35:03;;;;;;;9.00;3.27;;;;;;;;;;5097046;28;20404;-84
2022/05/16 07:37:29;;;;;;;8.33;3.43;;;;;;;;;;5088278;28;20946;-85
2022/05/16 07:39:55;;;;;;;4.43;3.17;;;;;;;;;;5083756;28;20419;-84
2022/05/16 07:42:21;;;;;;;6.22;3.30;;;;;;;;;;5078798;28;20442;-83
2022/05/16 07:44:48;;;;;;;4.53;3.40;;;;;;;;;;5075952;28;20206;-83
2022/05/16 07:47:14;;;;;;;7.03;2.70;;;;;;;;;;5060202;28;20459;-81
2022/05/16 07:49:40;;;;;;;5.03;2.43;;;;;;;;;;5059518;28;20532;-82
2022/05/16 07:52:07;;;;;;;4.80;3.20;;;;;;;;;;5070166;28;20424;-83
2022/05/16 07:54:34;;;;;;;3.70;3.23;;;;;;;;;;5075623;28;20441;-83
2022/05/16 07:57:02;;;;;;;6.67;3.53;;;;;;;;;;5078205;28;20419;-83
2022/05/16 07:59:28;;;;;;;7.37;3.40;;;;;;;;;;5085611;28;20427;-81
2022/05/16 08:01:54;;;;;;;4.60;3.17;;;;;;;;;;5079283;28;20421;-81
2022/05/16 08:04:21;;;;;;;6.00;3.90;;;;;;;;;;5078567;28;20432;-80
2022/05/16 08:06:48;;;;;;;8.63;3.20;;;;;;;;;;5079002;28;20408;-80
2022/05/16 08:11:58;;;;;;;4.80;2.40;;;;;;;;;;5083219;28;20967;-83
2022/05/16 08:14:25;;;;;;;5.17;2.97;;;;;;;;;;5090873;28;20434;-83
2022/05/16 08:16:51;;;;;;;3.50;2.83;;;;;;;;;;5067216;28;20405;-81
2022/05/16 08:19:17;;;;;;;6.90;2.50;;;;;;;;;;5091399;28;20452;-81
2022/05/16 08:21:43;;;;;;;3.43;2.50;;;;;;;;;;5077616;28;20412;-83
2022/05/16 08:24:11;;;;;;;3.20;2.70;;;;;;;;;;5060182;28;20451;-83
2022/05/16 08:26:37;;;;;;;10.50;3.00;;;;;;;;;;5092639;28;20419;-84
2022/05/16 08:29:04;;;;;;;5.60;3.00;;;;;;;;;;5093752;28;20459;-83
2022/05/16 08:31:30;;;;;;;4.70;3.07;;;;;;;;;;5080640;28;20793;-83
2022/05/16 08:33:56;;;;;;;3.73;2.20;;;;;;;;;;5085984;28;20425;-85
2022/05/16 08:41:54;;;;;;;4.27;2.73;;;;;;;;;;5094351;28;20523;-84
2022/05/16 08:44:41;;;;;;;4.47;2.70;;;;;;;;;;5062314;28;20436;-83
2022/05/16 08:47:27;;;;;;;5.40;2.63;;;;;;;;;;5070604;28;20416;-83
2022/05/16 08:49:53;;;;;;;4.73;2.27;;;;;;;;;;5073577;28;20459;-84
2022/05/16 08:52:19;;;;;;;4.20;2.80;;;;;;;;;;5066307;28;20491;-84
2022/05/16 08:54:49;;;;;;;6.30;2.93;;;;;;;;;;5065533;28;20436;-84
2022/05/16 08:57:24;;;;;;;4.80;2.40;;;;;;;;;;5066430;28;20417;-83
2022/05/16 09:00:01;;;;;;;3.60;2.43;;;;;;;;;;5098423;28;20403;-80
2022/05/16 09:02:30;;;;;;;5.30;3.00;;;;;;;;;;5092404;28;20518;-83
2022/05/16 09:05:03;;;;;;;3.77;2.30;;;;;;;;;;5093380;28;20858;-85
2022/05/16 09:07:34;;;;;;;4.03;2.33;;;;;;;;;;5067039;28;20448;-82
2022/05/16 09:10:09;;;;;;;3.73;2.10;;;;;;;;;;5097079;28;20467;-83
2022/05/16 09:12:44;;;;;;;6.20;2.20;;;;;;;;;;5076537;28;20439;-84
2022/05/16 09:15:19;;;;;;;5.67;2.90;;;;;;;;;;5084150;28;20746;-83
2022/05/16 09:18:04;;;;;;;5.30;2.63;;;;;;;;;;5085199;28;20410;-81
2022/05/16 09:20:33;;;;;;;4.90;2.83;;;;;;;;;;5067150;28;20413;-83
2022/05/16 09:23:18;;;;;;;5.17;2.80;;;;;;;;;;5096613;28;20501;-82
2022/05/16 09:25:47;;;;;;;6.73;2.90;;;;;;;;;;5069858;28;20412;-81
2022/05/16 09:31:01;;;;;;;5.70;2.90;;;;;;;;;;5074443;28;20500;-83
2022/05/16 09:33:29;;;;;;;5.00;2.90;;;;;;;;;;5087499;28;20424;-84
2022/05/16 09:35:58;;;;;;;3.87;2.40;;;;;;;;;;5103311;28;20783;-83
2022/05/16 09:38:24;;;;;;;10.13;2.80;;;;;;;;;;5065934;28;20749;-84
2022/05/16 09:40:59;;;;;;;3.10;2.57;;;;;;;;;;5065786;28;20405;-84
2022/05/16 09:43:30;;;;;;;4.23;2.33;;;;;;;;;;5065617;28;20483;-85
2022/05/16 09:46:14;;;;;;;5.40;2.77;;;;;;;;;;5090766;28;20441;-85
2022/05/16 09:48:47;;;;;;;4.63;2.87;;;;;;;;;;5085931;28;20508;-88
2022/05/16 09:51:15;;;;;;;6.87;2.10;;;;;;;;;;5103687;28;20437;-85
2022/05/16 09:53:45;;;;;;;4.03;2.23;;;;;;;;;;5070089;28;20436;-85
2022/05/16 09:56:24;;;;;;;2.83;2.37;;;;;;;;;;5086069;28;20456;-86
2022/05/16 09:59:01;;;;;;;5.17;2.73;;;;;;;;;;5065783;28;20412;-84
2022/05/16 10:01:49;;;;;;;3.40;2.17;;;;;;;;;;5098256;28;20385;-84
2022/05/16 10:04:16;;;;;;;4.93;2.70;;;;;;;;;;5082012;28;20463;-84
2022/05/16 10:06:44;;;;;;;3.70;2.30;;;;;;;;;;5094572;28;20403;-85
2022/05/16 10:09:14;;;;;;;5.60;2.20;;;;;;;;;;5083861;28;20459;-83
2022/05/16 10:11:42;;;;;;;2.93;2.10;;;;;;;;;;5069621;28;20404;-85
2022/05/16 10:14:09;;;;;;;3.50;2.33;;;;;;;;;;5084865;28;20432;-84
2022/05/16 10:16:37;;;;;;;3.90;2.10;;;;;;;;;;5084249;28;20787;-86
2022/05/16 10:19:09;;;;;;;2.70;1.80;;;;;;;;;;5103040;28;20512;-84
2022/05/16 10:21:40;;;;;;;2.60;2.10;;;;;;;;;;5069941;28;20423;-85
2022/05/16 10:24:07;;;;;;;2.90;2.03;;;;;;;;;;5102657;28;20442;-85
2022/05/16 10:26:45;;;;;;;2.60;1.50;;;;;;;;;;5090740;28;20471;-86
2022/05/16 10:29:21;;;;;;;3.70;1.90;;;;;;;;;;5097795;28;20439;-85
2022/05/16 10:34:37;;;;;;;2.83;1.97;;;;;;;;;;5101632;28;20790;-85
2022/05/16 10:37:04;;;;;;;3.20;1.87;;;;;;;;;;5083492;28;20435;-84
2022/05/16 10:39:31;;;;;;;2.40;1.83;;;;;;;;;;5064756;28;20432;-87
2022/05/16 10:42:15;;;;;;;2.73;2.07;;;;;;;;;;5087578;28;20403;-86
2022/05/16 10:44:48;;;;;;;3.77;2.03;;;;;;;;;;5090028;28;20436;-85
2022/05/16 10:47:18;;;;;;;3.67;2.20;;;;;;;;;;5064760;28;20397;-86
2022/05/16 10:49:49;;;;;;;3.97;2.20;;;;;;;;;;5102701;28;20447;-83
2022/05/16 10:52:21;;;;;;;3.33;2.00;;;;;;;;;;5102002;28;20941;-85
2022/05/16 10:54:47;;;;;;;5.00;2.73;;;;;;;;;;5115911;28;20447;-83
2022/05/16 10:57:25;;;;;;;3.47;2.33;;;;;;;;;;5101311;28;20408;-82
2022/05/16 11:00:00;;;;;;;4.70;2.13;;;;;;;;;;5077351;28;20535;-85
2022/05/16 11:02:31;;;;;;;4.03;1.90;;;;;;;;;;5095545;28;20428;-85
2022/05/16 11:05:00;;;;;;;2.43;1.60;;;;;;;;;;5083202;28;20929;-86
2022/05/16 11:07:32;;;;;;;3.50;2.30;;;;;;;;;;5082540;28;20411;-85
2022/05/16 11:09:58;;;;;;;3.13;2.47;;;;;;;;;;5087504;28;20455;-83
2022/05/16 11:12:34;;;;;;;4.03;2.87;;;;;;;;;;5084310;28;20412;-83
2022/05/16 11:15:00;;;;;;;3.60;2.03;;;;;;;;;;5069252;28;20469;-84
2022/05/16 11:17:49;;;;;;;3.37;2.20;;;;;;;;;;5062853;28;20832;-86
2022/05/16 11:20:19;;;;;;;2.67;1.90;;;;;;;;;;5052589;28;20458;-85
2022/05/16 11:22:55;;;;;;;2.73;2.13;;;;;;;;;;5062119;28;20439;-85
2022/05/16 11:25:31;;;;;;;3.50;2.20;;;;;;;;;;5062679;28;20401;-86
2022/05/16 11:28:04;;;;;;;3.50;2.30;;;;;;;;;;5062700;28;20423;-84
2022/05/16 11:30:42;;;;;;;2.57;1.87;;;;;;;;;;5061963;28;20509;-84
2022/05/16 11:33:14;;;;;;;6.80;3.03;;;;;;;;;;5062474;28;20493;-86
2022/05/16 11:35:43;;;;;;;2.40;2.00;;;;;;;;;;5058810;28;20442;-84
2022/05/16 11:38:33;;;;;;;2.50;1.70;;;;;;;;;;5056933;28;20397;-85
2022/05/16 11:41:12;;;;;;;3.60;1.90;;;;;;;;;;5040379;28;20441;-85
2022/05/16 11:43:42;;;;;;;2.63;2.07;;;;;;;;;;5101840;28;20858;-85
2022/05/16 11:46:44;;;;;;;3.50;2.33;;;;;;;;;;5099802;28;20475;-85
2022/05/16 11:49:16;;;;;;;3.60;2.43;;;;;;;;;;5020508;28;20914;-85
2022/05/16 11:51:52;;;;;;;2.80;1.90;;;;;;;;;;5090699;28;20482;-85
2022/05/16 11:54:19;;;;;;;2.53;1.67;;;;;;;;;;5080546;28;20431;-84
2022/05/16 12:02:28;;;;;;;2.70;1.87;;;;;;;;;;5100671;28;20391;-87
2022/05/16 12:05:03;;;;;;;2.53;1.77;;;;;;;;;;5107434;28;20433;-86
2022/05/16 12:07:39;;;;;;;3.40;1.87;;;;;;;;;;5091959;28;20411;-85
2022/05/16 12:10:11;;;;;;;3.10;2.00;;;;;;;;;;5097074;28;20454;-83
2022/05/16 12:12:41;;;;;;;3.23;1.87;;;;;;;;;;5077268;28;20404;-84
2022/05/16 12:15:19;;;;;;;4.60;2.20;;;;;;;;;;5078165;28;20893;-84
2022/05/16 12:17:49;;;;;;;2.60;1.80;;;;;;;;;;5078644;28;20380;-87
2022/05/16 12:20:15;;;;;;;4.20;2.80;;;;;;;;;;5078082;28;20480;-85
2022/05/16 12:22:42;;;;;;;4.33;2.00;;;;;;;;;;5058713;28;20527;-85
2022/05/16 12:25:15;;;;;;;2.97;1.90;;;;;;;;;;5076033;28;20512;-84
2022/05/16 12:27:45;;;;;;;3.97;1.90;;;;;;;;;;5099187;28;20404;-83
2022/05/16 12:30:34;;;;;;;3.43;2.00;;;;;;;;;;5090039;28;20464;-85
2022/05/16 12:33:00;;;;;;;4.40;2.50;;;;;;;;;;5059786;28;20439;-86
2022/05/16 12:35:37;;;;;;;2.53;2.00;;;;;;;;;;5060064;28;20400;-84
2022/05/16 12:38:03;;;;;;;3.00;1.73;;;;;;;;;;5078378;28;20408;-85
2022/05/16 12:40:32;;;;;;;3.00;1.93;;;;;;;;;;5089785;28;20439;-86
2022/05/16 12:43:07;;;;;;;3.30;2.03;;;;;;;;;;5080251;28;20427;-85
2022/05/16 12:45:52;;;;;;;3.87;2.10;;;;;;;;;;5040354;28;20440;-86
2022/05/16 12:48:30;;;;;;;4.27;2.03;;;;;;;;;;5063855;28;20412;-85
2022/05/16 12:51:02;;;;;;;4.50;2.10;;;;;;;;;;5093021;28;20412;-86
2022/05/16 12:53:47;;;;;;;6.80;2.10;;;;;;;;;;5073759;28;20460;-85
2022/05/16 12:56:25;;;;;;;4.90;2.00;;;;;;;;;;5077928;28;20416;-87
2022/05/16 12:58:56;;;;;;;2.30;1.53;;;;;;;;;;5060320;28;20828;-85
2022/05/16 13:01:34;;;;;;;10.07;2.47;;;;;;;;;;5078260;28;20833;-86
2022/05/16 13:04:17;;;;;;;2.80;2.13;;;;;;;;;;5060282;28;20508;-86
2022/05/16 13:07:02;;;;;;;3.93;2.10;;;;;;;;;;5078045;28;20409;-85
2022/05/16 13:09:38;;;;;;;2.83;1.93;;;;;;;;;;5068514;28;20527;-84
2022/05/16 13:12:24;;;;;;;4.60;2.17;;;;;;;;;;5078311;28;20399;-85
2022/05/16 13:14:58;;;;;;;2.67;1.90;;;;;;;;;;5059535;28;20424;-84
2022/05/16 13:17:37;;;;;;;4.50;2.00;;;;;;;;;;5060893;28;20412;-85
2022/05/16 13:20:06;;;;;;;3.73;2.20;;;;;;;;;;5080394;28;20423;-85
2022/05/16 13:22:32;;;;;;;4.00;2.30;;;;;;;;;;5062770;28;20412;-85
2022/05/16 13:24:59;;;;;;;6.03;1.90;;;;;;;;;;5061938;28;20443;-86
2022/05/16 13:30:13;;;;;;;3.60;1.80;;;;;;;;;;5086638;28;20450;-86
2022/05/16 13:32:39;;;;;;;3.13;1.87;;;;;;;;;;5084833;28;20981;-86
2022/05/16 13:35:13;;;;;;;2.40;1.70;;;;;;;;;;5099243;28;20411;-85
2022/05/16 13:37:48;;;;;;;5.87;2.20;;;;;;;;;;5066066;28;20412;-85
2022/05/16 13:40:19;;;;;;;4.10;2.17;;;;;;;;;;5065816;28;20431;-85
2022/05/16 13:42:46;;;;;;;4.33;2.37;;;;;;;;;;5077926;28;20423;-85
2022/05/16 13:45:12;;;;;;;6.77;2.80;;;;;;;;;;5103706;28;20410;-86
2022/05/16 13:47:44;;;;;;;4.20;2.37;;;;;;;;;;5086335;28;20444;-86
2022/05/16 13:50:40;;;;;;;4.10;2.70;;;;;;;;;;5081991;28;20990;-86
2022/05/16 13:53:08;;;;;;;4.47;2.40;;;;;;;;;;5062804;28;20424;-85
2022/05/16 13:55:34;;;;;;;3.80;2.43;;;;;;;;;;5082313;28;20417;-84
2022/05/16 13:58:05;;;;;;;4.37;3.07;;;;;;;;;;5082856;28;20408;-86
2022/05/16 14:00:36;;;;;;;3.53;2.93;;;;;;;;;;5064348;28;20417;-85
2022/05/16 14:03:04;;;;;;;4.23;2.77;;;;;;;;;;5064646;28;20519;-85
2022/05/16 14:05:43;;;;;;;5.27;2.77;;;;;;;;;;5066015;28;20425;-85
2022/05/16 14:08:19;;;;;;;5.60;2.33;;;;;;;;;;5084488;28;20939;-83
2022/05/16 14:10:45;;;;;;;3.97;2.40;;;;;;;;;;5083777;28;20451;-86
2022/05/16 14:13:14;;;;;;;3.87;2.20;;;;;;;;;;5067217;28;20519;-86
2022/05/16 14:15:43;;;;;;;3.67;2.50;;;;;;;;;;5081663;28;20412;-84
2022/05/16 14:18:12;;;;;;;4.53;2.70;;;;;;;;;;5085269;28;20491;-84
2022/05/16 14:20:40;;;;;;;4.70;2.30;;;;;;;;;;5084240;28;20401;-85
2022/05/16 14:23:14;;;;;;;4.27;2.20;;;;;;;;;;5066825;28;20420;-85
2022/05/16 14:25:41;;;;;;;3.13;2.33;;;;;;;;;;5066689;28;20392;-85
2022/05/16 14:28:25;;;;;;;5.90;2.60;;;;;;;;;;5083782;28;20454;-85
2022/05/16 14:31:04;;;;;;;7.43;2.70;;;;;;;;;;5080300;28;20734;-85
2022/05/16 14:33:34;;;;;;;5.10;2.63;;;;;;;;;;5097049;28;20437;-84
2022/05/16 14:36:08;;;;;;;4.90;2.80;;;;;;;;;;5094505;28;20388;-85
2022/05/16 14:38:53;;;;;;;3.90;2.40;;;;;;;;;;5091644;28;20400;-86
2022/05/16 14:41:23;;;;;;;4.90;2.20;;;;;;;;;;5082926;28;20392;-85
2022/05/16 14:44:06;;;;;;;3.90;2.70;;;;;;;;;;5065962;28;21004;-86
2022/05/16 14:46:43;;;;;;;3.50;2.43;;;;;;;;;;5064523;28;20401;-86
2022/05/16 14:49:12;;;;;;;5.30;2.80;;;;;;;;;;5083455;28;20444;-86
2022/05/16 14:51:39;;;;;;;5.80;2.90;;;;;;;;;;5065514;28;20409;-86
2022/05/16 14:54:17;;;;;;;11.87;2.90;;;;;;;;;;5084643;28;20782;-86
2022/05/16 14:56:43;;;;;;;5.50;2.30;;;;;;;;;;5070863;28;20512;-86
2022/05/16 14:59:09;;;;;;;6.13;2.17;;;;;;;;;;5075448;28;20413;-85
2022/05/16 15:04:20;;;;;;;18.13;3.30;;;;;;;;;;5093980;28;20462;-84
2022/05/16 15:06:46;;;;;;;84.60;6.70;;;;;;;;;;5097992;28;20434;-87
2022/05/16 15:09:15;;;;;;;92.27;11.20;;;;;;;;;;5065369;28;20449;-88
2022/05/16 15:11:45;;;;;;;17.47;9.30;;;;;;;;;;5080314;28;20435;-87
2022/05/16 15:14:12;;;;;;;22.00;8.27;;;;;;;;;;5063637;28;20425;-87
2022/05/16 15:16:39;;;;;;;18.60;9.90;;;;;;;;;;5080745;28;20400;-87
2022/05/16 15:19:07;;;;;;;19.27;10.97;;;;;;;;;;5063629;28;20417;-87
2022/05/16 15:21:34;;;;;;;19.00;10.67;;;;;;;;;;5071173;23;20492;-84
2022/05/16 15:24:02;;;;;;;18.20;9.23;;;;;;;;;;5063335;28;20417;-84
2022/05/16 15:26:28;;;;;;;13.93;8.83;;;;;;;;;;5063410;28;20447;-84
2022/05/16 15:28:54;;;;;;;13.00;7.20;;;;;;;;;;5063688;28;20456;-83
2022/05/16 15:31:20;;;;;;;14.00;7.97;;;;;;;;;;5063692;28;20440;-83
2022/05/16 15:33:46;;;;;;;16.20;9.77;;;;;;;;;;5049867;28;20434;-84
2022/05/16 15:36:12;;;;;;;17.77;11.37;;;;;;;;;;5044265;28;20421;-83